Etusivu
METAR-TAF:

METAR-TAF

Lentoasemat :

Harbin, Kiina

Leveyspiiri: 45-45N, Pituuspiiri: 126-46E, korkeus merenpinnasta: 143 m

Tämänhetkinen sää

Tämä raportti tehtiin 48 minuuttia sitten, kello 15.00 UTC
Tuuli 2 kn etelästä
Lämpötila 27°C
Kosteus 79%
Ilmanpaine 1006 hPa
Näkyvyys: 8000 m

METAR: ZYHB 231500Z 19001MPS 8000 NSC 27/23 Q1006 NOSIG

Aika: 23:48 (15:48 UTC)

Sääennuste

Tämä raportti tehtiin 6 tuntia ja 47 minuuttia sitten, kello 09.01 UTC
Ennuste voimassa 23. päivästä klo 12 UTC - 24. päivään klo 12 UTC
Tuuli 8 kn etelästä/lounaasta
Näkyvyys: 6000 m
Hajanaisia pilviä 3300 ft:n korkeudessa

TAF: ZYHB 230901Z 2312/2412 21004MPS 6000 SCT033 TX31/2406Z TN23/2321Z

Säähavainnot ja -ennusteet yli 4000 lentoasemalta (METAR- ja TAF-raportit).

Käytössä olevat sääasemat on merkitty karttaan keltaisilla ja punaisilla pisteillä.

Aseta hiiri pisteen päälle nähdäksesi sääaseman nimen.

Klikkaa sitten nähdäksesi säähavainnot ja -ennusteet.

Kartan vaihtaminen: klikkaa mustalla rastilla varustettuja vihreitä pisteitä, niin voit zoomata sisään; viivalla varustettua vihreää pistettä, niin voit zoomata ulos tai vihreitä nuolia, niin pääset viereisille kartoille.


METAR-TAF: